sensor_id;sensor_type;location;lat;lon;timestamp;P1;durP1;ratioP1;P2;durP2;ratioP2
53903;SDS011;39812;52.430;16.936;2022-11-10T00:02:02;42.20;;;19.27;;
53903;SDS011;39812;52.430;16.936;2022-11-10T00:04:28;42.22;;;19.27;;
53903;SDS011;39812;52.430;16.936;2022-11-10T00:06:54;46.22;;;19.65;;
53903;SDS011;39812;52.430;16.936;2022-11-10T00:09:19;45.80;;;19.80;;
53903;SDS011;39812;52.430;16.936;2022-11-10T00:11:45;35.70;;;17.17;;
53903;SDS011;39812;52.430;16.936;2022-11-10T00:14:10;46.97;;;20.40;;
53903;SDS011;39812;52.430;16.936;2022-11-10T00:16:54;41.10;;;17.93;;
53903;SDS011;39812;52.430;16.936;2022-11-10T00:19:29;48.15;;;20.20;;
53903;SDS011;39812;52.430;16.936;2022-11-10T00:21:55;39.60;;;18.20;;
53903;SDS011;39812;52.430;16.936;2022-11-10T00:24:21;41.30;;;18.33;;
53903;SDS011;39812;52.430;16.936;2022-11-10T00:26:47;41.90;;;19.02;;
53903;SDS011;39812;52.430;16.936;2022-11-10T00:29:13;42.50;;;21.10;;
53903;SDS011;39812;52.430;16.936;2022-11-10T00:31:39;40.70;;;17.20;;
53903;SDS011;39812;52.430;16.936;2022-11-10T00:34:06;41.90;;;18.38;;
53903;SDS011;39812;52.430;16.936;2022-11-10T00:36:34;43.70;;;19.73;;
53903;SDS011;39812;52.430;16.936;2022-11-10T00:39:00;42.75;;;18.95;;
53903;SDS011;39812;52.430;16.936;2022-11-10T00:41:25;40.30;;;18.90;;
53903;SDS011;39812;52.430;16.936;2022-11-10T00:43:51;36.95;;;17.45;;
53903;SDS011;39812;52.430;16.936;2022-11-10T00:46:16;43.15;;;18.95;;
53903;SDS011;39812;52.430;16.936;2022-11-10T00:48:42;39.90;;;17.73;;
53903;SDS011;39812;52.430;16.936;2022-11-10T00:51:08;39.58;;;18.42;;
53903;SDS011;39812;52.430;16.936;2022-11-10T00:53:45;42.97;;;18.55;;
53903;SDS011;39812;52.430;16.936;2022-11-10T00:56:10;41.85;;;18.58;;
53903;SDS011;39812;52.430;16.936;2022-11-10T00:58:36;40.10;;;19.05;;
53903;SDS011;39812;52.430;16.936;2022-11-10T01:01:02;43.28;;;18.60;;
53903;SDS011;39812;52.430;16.936;2022-11-10T01:03:29;42.75;;;19.10;;
53903;SDS011;39812;52.430;16.936;2022-11-10T01:05:55;41.72;;;18.55;;
53903;SDS011;39812;52.430;16.936;2022-11-10T01:08:20;40.20;;;18.42;;
53903;SDS011;39812;52.430;16.936;2022-11-10T01:10:46;32.20;;;16.65;;
53903;SDS011;39812;52.430;16.936;2022-11-10T01:13:11;46.92;;;20.42;;
53903;SDS011;39812;52.430;16.936;2022-11-10T01:15:40;43.15;;;18.65;;
53903;SDS011;39812;52.430;16.936;2022-11-10T01:18:06;33.97;;;17.10;;
53903;SDS011;39812;52.430;16.936;2022-11-10T01:20:33;42.17;;;19.77;;
53903;SDS011;39812;52.430;16.936;2022-11-10T01:22:59;38.67;;;17.67;;
53903;SDS011;39812;52.430;16.936;2022-11-10T01:25:24;36.28;;;17.50;;
53903;SDS011;39812;52.430;16.936;2022-11-10T01:27:50;42.42;;;17.42;;
53903;SDS011;39812;52.430;16.936;2022-11-10T01:30:16;47.85;;;18.77;;
53903;SDS011;39812;52.430;16.936;2022-11-10T01:32:42;38.83;;;18.13;;
53903;SDS011;39812;52.430;16.936;2022-11-10T01:35:07;42.80;;;18.02;;
53903;SDS011;39812;52.430;16.936;2022-11-10T01:37:33;38.30;;;18.25;;
53903;SDS011;39812;52.430;16.936;2022-11-10T01:39:58;39.88;;;18.75;;
53903;SDS011;39812;52.430;16.936;2022-11-10T01:42:24;40.55;;;17.38;;
53903;SDS011;39812;52.430;16.936;2022-11-10T01:48:00;40.75;;;17.65;;
53903;SDS011;39812;52.430;16.936;2022-11-10T01:50:29;41.95;;;18.70;;
53903;SDS011;39812;52.430;16.936;2022-11-10T01:52:58;43.42;;;19.52;;
53903;SDS011;39812;52.430;16.936;2022-11-10T01:55:28;36.17;;;17.20;;
53903;SDS011;39812;52.430;16.936;2022-11-10T01:57:54;38.22;;;18.10;;
53903;SDS011;39812;52.430;16.936;2022-11-10T02:00:20;42.30;;;17.52;;
53903;SDS011;39812;52.430;16.936;2022-11-10T02:02:49;37.67;;;18.38;;
53903;SDS011;39812;52.430;16.936;2022-11-10T02:05:25;38.63;;;17.05;;
53903;SDS011;39812;52.430;16.936;2022-11-10T02:07:51;41.72;;;17.75;;
53903;SDS011;39812;52.430;16.936;2022-11-10T02:10:17;45.40;;;19.67;;
53903;SDS011;39812;52.430;16.936;2022-11-10T02:12:44;41.08;;;19.23;;
53903;SDS011;39812;52.430;16.936;2022-11-10T02:15:12;40.53;;;17.88;;
53903;SDS011;39812;52.430;16.936;2022-11-10T02:17:39;39.40;;;17.83;;
53903;SDS011;39812;52.430;16.936;2022-11-10T02:20:07;38.67;;;17.90;;
53903;SDS011;39812;52.430;16.936;2022-11-10T02:22:35;40.83;;;17.92;;
53903;SDS011;39812;52.430;16.936;2022-11-10T02:25:01;39.13;;;16.73;;
53903;SDS011;39812;52.430;16.936;2022-11-10T02:27:28;43.67;;;18.88;;
53903;SDS011;39812;52.430;16.936;2022-11-10T02:29:54;42.70;;;18.35;;
53903;SDS011;39812;52.430;16.936;2022-11-10T02:32:20;41.33;;;17.60;;
53903;SDS011;39812;52.430;16.936;2022-11-10T02:34:46;38.40;;;18.10;;
53903;SDS011;39812;52.430;16.936;2022-11-10T02:37:11;41.03;;;18.05;;
53903;SDS011;39812;52.430;16.936;2022-11-10T02:39:36;39.25;;;18.02;;
53903;SDS011;39812;52.430;16.936;2022-11-10T02:42:02;37.28;;;17.48;;
53903;SDS011;39812;52.430;16.936;2022-11-10T02:44:28;43.67;;;17.90;;
53903;SDS011;39812;52.430;16.936;2022-11-10T02:46:54;35.85;;;16.23;;
53903;SDS011;39812;52.430;16.936;2022-11-10T02:49:20;38.88;;;17.83;;
53903;SDS011;39812;52.430;16.936;2022-11-10T02:51:45;37.53;;;17.80;;
53903;SDS011;39812;52.430;16.936;2022-11-10T02:54:11;36.65;;;17.10;;
53903;SDS011;39812;52.430;16.936;2022-11-10T02:56:36;38.97;;;19.15;;
53903;SDS011;39812;52.430;16.936;2022-11-10T02:59:02;37.70;;;17.17;;
53903;SDS011;39812;52.430;16.936;2022-11-10T03:01:28;39.78;;;17.20;;
53903;SDS011;39812;52.430;16.936;2022-11-10T03:03:54;39.13;;;17.95;;
53903;SDS011;39812;52.430;16.936;2022-11-10T03:06:19;41.72;;;17.15;;
53903;SDS011;39812;52.430;16.936;2022-11-10T03:08:45;37.70;;;17.35;;
53903;SDS011;39812;52.430;16.936;2022-11-10T03:11:10;38.85;;;16.92;;
53903;SDS011;39812;52.430;16.936;2022-11-10T03:13:36;38.47;;;18.15;;
53903;SDS011;39812;52.430;16.936;2022-11-10T03:16:01;36.78;;;17.25;;
53903;SDS011;39812;52.430;16.936;2022-11-10T03:18:26;38.08;;;17.02;;
53903;SDS011;39812;52.430;16.936;2022-11-10T03:20:52;37.42;;;17.35;;
53903;SDS011;39812;52.430;16.936;2022-11-10T03:23:18;40.03;;;16.58;;
53903;SDS011;39812;52.430;16.936;2022-11-10T03:25:43;37.67;;;17.63;;
53903;SDS011;39812;52.430;16.936;2022-11-10T03:28:09;36.33;;;18.52;;
53903;SDS011;39812;52.430;16.936;2022-11-10T03:30:36;36.33;;;16.85;;
53903;SDS011;39812;52.430;16.936;2022-11-10T03:33:01;39.05;;;16.35;;
53903;SDS011;39812;52.430;16.936;2022-11-10T03:35:27;37.78;;;17.35;;
53903;SDS011;39812;52.430;16.936;2022-11-10T03:37:53;36.45;;;16.92;;
53903;SDS011;39812;52.430;16.936;2022-11-10T03:40:18;37.75;;;15.95;;
53903;SDS011;39812;52.430;16.936;2022-11-10T03:42:45;37.28;;;16.60;;
53903;SDS011;39812;52.430;16.936;2022-11-10T03:45:11;37.25;;;17.00;;
53903;SDS011;39812;52.430;16.936;2022-11-10T03:47:38;35.28;;;16.63;;
53903;SDS011;39812;52.430;16.936;2022-11-10T03:50:04;38.25;;;17.73;;
53903;SDS011;39812;52.430;16.936;2022-11-10T03:52:30;37.88;;;17.05;;
53903;SDS011;39812;52.430;16.936;2022-11-10T03:54:56;38.95;;;17.80;;
53903;SDS011;39812;52.430;16.936;2022-11-10T03:57:21;39.95;;;17.13;;
53903;SDS011;39812;52.430;16.936;2022-11-10T03:59:47;41.92;;;17.52;;
53903;SDS011;39812;52.430;16.936;2022-11-10T04:02:12;33.40;;;16.73;;
53903;SDS011;39812;52.430;16.936;2022-11-10T04:04:38;39.17;;;17.45;;
53903;SDS011;39812;52.430;16.936;2022-11-10T04:07:22;38.08;;;17.38;;
53903;SDS011;39812;52.430;16.936;2022-11-10T04:10:06;41.72;;;16.92;;
53903;SDS011;39812;52.430;16.936;2022-11-10T04:12:32;36.85;;;16.88;;
53903;SDS011;39812;52.430;16.936;2022-11-10T04:15:16;38.63;;;17.20;;
53903;SDS011;39812;52.430;16.936;2022-11-10T04:18:00;37.78;;;17.40;;
53903;SDS011;39812;52.430;16.936;2022-11-10T04:20:44;32.85;;;16.20;;
53903;SDS011;39812;52.430;16.936;2022-11-10T04:23:11;36.70;;;16.25;;
53903;SDS011;39812;52.430;16.936;2022-11-10T04:25:58;36.55;;;15.30;;
53903;SDS011;39812;52.430;16.936;2022-11-10T04:28:45;28.55;;;15.27;;
53903;SDS011;39812;52.430;16.936;2022-11-10T04:31:12;36.20;;;16.02;;
53903;SDS011;39812;52.430;16.936;2022-11-10T04:33:39;33.53;;;14.90;;
53903;SDS011;39812;52.430;16.936;2022-11-10T04:36:06;34.22;;;15.15;;
53903;SDS011;39812;52.430;16.936;2022-11-10T04:38:32;36.65;;;15.70;;
53903;SDS011;39812;52.430;16.936;2022-11-10T04:40:57;30.63;;;14.40;;
53903;SDS011;39812;52.430;16.936;2022-11-10T04:43:23;34.20;;;13.68;;
53903;SDS011;39812;52.430;16.936;2022-11-10T04:45:49;28.17;;;13.50;;
53903;SDS011;39812;52.430;16.936;2022-11-10T04:48:14;29.08;;;14.25;;
53903;SDS011;39812;52.430;16.936;2022-11-10T04:50:39;32.28;;;14.27;;
53903;SDS011;39812;52.430;16.936;2022-11-10T04:53:05;32.28;;;13.30;;
53903;SDS011;39812;52.430;16.936;2022-11-10T04:55:30;31.83;;;13.85;;
53903;SDS011;39812;52.430;16.936;2022-11-10T04:57:56;26.52;;;13.98;;
53903;SDS011;39812;52.430;16.936;2022-11-10T05:00:21;28.77;;;12.88;;
53903;SDS011;39812;52.430;16.936;2022-11-10T05:02:47;31.45;;;13.98;;
53903;SDS011;39812;52.430;16.936;2022-11-10T05:05:12;28.95;;;13.95;;
53903;SDS011;39812;52.430;16.936;2022-11-10T05:07:38;28.73;;;13.77;;
53903;SDS011;39812;52.430;16.936;2022-11-10T05:10:03;28.60;;;14.20;;
53903;SDS011;39812;52.430;16.936;2022-11-10T05:12:29;28.55;;;14.02;;
53903;SDS011;39812;52.430;16.936;2022-11-10T05:14:55;30.27;;;13.35;;
53903;SDS011;39812;52.430;16.936;2022-11-10T05:17:20;29.88;;;13.55;;
53903;SDS011;39812;52.430;16.936;2022-11-10T05:19:47;24.05;;;12.32;;
53903;SDS011;39812;52.430;16.936;2022-11-10T05:22:12;24.77;;;12.38;;
53903;SDS011;39812;52.430;16.936;2022-11-10T05:24:38;28.10;;;13.05;;
53903;SDS011;39812;52.430;16.936;2022-11-10T05:27:03;28.88;;;13.13;;
53903;SDS011;39812;52.430;16.936;2022-11-10T05:29:29;29.20;;;12.48;;
53903;SDS011;39812;52.430;16.936;2022-11-10T05:31:55;27.80;;;12.93;;
53903;SDS011;39812;52.430;16.936;2022-11-10T05:34:20;23.27;;;11.85;;
53903;SDS011;39812;52.430;16.936;2022-11-10T05:36:46;26.60;;;12.90;;
53903;SDS011;39812;52.430;16.936;2022-11-10T05:39:11;24.75;;;12.48;;
53903;SDS011;39812;52.430;16.936;2022-11-10T05:41:37;27.83;;;12.57;;
53903;SDS011;39812;52.430;16.936;2022-11-10T05:44:02;28.90;;;13.18;;
53903;SDS011;39812;52.430;16.936;2022-11-10T05:46:28;24.55;;;11.27;;
53903;SDS011;39812;52.430;16.936;2022-11-10T05:48:55;24.45;;;10.80;;
53903;SDS011;39812;52.430;16.936;2022-11-10T05:51:20;23.67;;;11.82;;
53903;SDS011;39812;52.430;16.936;2022-11-10T05:53:46;23.95;;;11.75;;
53903;SDS011;39812;52.430;16.936;2022-11-10T05:56:11;20.88;;;10.85;;
53903;SDS011;39812;52.430;16.936;2022-11-10T05:58:37;19.77;;;10.43;;
53903;SDS011;39812;52.430;16.936;2022-11-10T06:01:02;20.67;;;10.93;;
53903;SDS011;39812;52.430;16.936;2022-11-10T06:03:28;21.85;;;10.55;;
53903;SDS011;39812;52.430;16.936;2022-11-10T06:05:53;19.55;;;10.25;;
53903;SDS011;39812;52.430;16.936;2022-11-10T06:08:19;25.35;;;10.95;;
53903;SDS011;39812;52.430;16.936;2022-11-10T06:10:44;21.30;;;10.07;;
53903;SDS011;39812;52.430;16.936;2022-11-10T06:13:10;22.45;;;9.98;;
53903;SDS011;39812;52.430;16.936;2022-11-10T06:15:35;22.27;;;10.80;;
53903;SDS011;39812;52.430;16.936;2022-11-10T06:18:01;19.90;;;9.45;;
53903;SDS011;39812;52.430;16.936;2022-11-10T06:20:27;21.08;;;10.90;;
53903;SDS011;39812;52.430;16.936;2022-11-10T06:23:03;21.92;;;10.88;;
53903;SDS011;39812;52.430;16.936;2022-11-10T06:25:32;20.17;;;10.32;;
53903;SDS011;39812;52.430;16.936;2022-11-10T06:27:59;20.77;;;10.13;;
53903;SDS011;39812;52.430;16.936;2022-11-10T06:30:25;23.10;;;11.77;;
53903;SDS011;39812;52.430;16.936;2022-11-10T06:32:52;21.60;;;10.43;;
53903;SDS011;39812;52.430;16.936;2022-11-10T06:35:18;21.17;;;11.40;;
53903;SDS011;39812;52.430;16.936;2022-11-10T06:37:44;21.20;;;11.50;;
53903;SDS011;39812;52.430;16.936;2022-11-10T06:40:10;26.10;;;11.85;;
53903;SDS011;39812;52.430;16.936;2022-11-10T06:42:37;24.00;;;11.57;;
53903;SDS011;39812;52.430;16.936;2022-11-10T06:45:03;23.98;;;11.38;;
53903;SDS011;39812;52.430;16.936;2022-11-10T06:47:29;23.15;;;11.40;;
53903;SDS011;39812;52.430;16.936;2022-11-10T06:49:55;23.30;;;11.10;;
53903;SDS011;39812;52.430;16.936;2022-11-10T06:52:21;24.55;;;10.50;;
53903;SDS011;39812;52.430;16.936;2022-11-10T06:54:46;26.67;;;11.68;;
53903;SDS011;39812;52.430;16.936;2022-11-10T06:57:12;21.73;;;11.68;;
53903;SDS011;39812;52.430;16.936;2022-11-10T06:59:37;26.55;;;11.68;;
53903;SDS011;39812;52.430;16.936;2022-11-10T07:02:02;22.88;;;11.85;;
53903;SDS011;39812;52.430;16.936;2022-11-10T07:04:28;24.70;;;11.27;;
53903;SDS011;39812;52.430;16.936;2022-11-10T07:06:53;22.67;;;10.73;;
53903;SDS011;39812;52.430;16.936;2022-11-10T07:09:19;18.25;;;9.05;;
53903;SDS011;39812;52.430;16.936;2022-11-10T07:11:44;20.77;;;9.32;;
53903;SDS011;39812;52.430;16.936;2022-11-10T07:14:10;20.30;;;10.50;;
53903;SDS011;39812;52.430;16.936;2022-11-10T07:16:36;20.13;;;9.10;;
53903;SDS011;39812;52.430;16.936;2022-11-10T07:19:01;17.20;;;9.40;;
53903;SDS011;39812;52.430;16.936;2022-11-10T07:21:27;21.15;;;8.98;;
53903;SDS011;39812;52.430;16.936;2022-11-10T07:23:52;18.88;;;9.73;;
53903;SDS011;39812;52.430;16.936;2022-11-10T07:26:18;21.60;;;9.38;;
53903;SDS011;39812;52.430;16.936;2022-11-10T07:28:43;22.15;;;9.52;;
53903;SDS011;39812;52.430;16.936;2022-11-10T07:31:09;17.60;;;9.23;;
53903;SDS011;39812;52.430;16.936;2022-11-10T07:33:34;21.70;;;8.95;;
53903;SDS011;39812;52.430;16.936;2022-11-10T07:36:01;16.25;;;7.57;;
53903;SDS011;39812;52.430;16.936;2022-11-10T07:38:28;13.15;;;6.60;;
53903;SDS011;39812;52.430;16.936;2022-11-10T07:40:54;16.67;;;8.13;;
53903;SDS011;39812;52.430;16.936;2022-11-10T07:43:20;14.30;;;7.47;;
53903;SDS011;39812;52.430;16.936;2022-11-10T07:45:48;13.95;;;7.35;;
53903;SDS011;39812;52.430;16.936;2022-11-10T07:48:15;12.23;;;7.25;;
53903;SDS011;39812;52.430;16.936;2022-11-10T07:50:41;16.10;;;7.85;;
53903;SDS011;39812;52.430;16.936;2022-11-10T07:53:07;18.35;;;7.93;;
53903;SDS011;39812;52.430;16.936;2022-11-10T07:55:35;13.55;;;7.18;;
53903;SDS011;39812;52.430;16.936;2022-11-10T07:58:02;15.30;;;7.38;;
53903;SDS011;39812;52.430;16.936;2022-11-10T08:00:28;15.75;;;7.57;;
53903;SDS011;39812;52.430;16.936;2022-11-10T08:02:59;17.50;;;7.00;;
53903;SDS011;39812;52.430;16.936;2022-11-10T08:05:26;15.00;;;7.18;;
53903;SDS011;39812;52.430;16.936;2022-11-10T08:07:51;13.40;;;6.70;;
53903;SDS011;39812;52.430;16.936;2022-11-10T08:10:17;12.15;;;6.65;;
53903;SDS011;39812;52.430;16.936;2022-11-10T08:12:42;14.32;;;6.07;;
53903;SDS011;39812;52.430;16.936;2022-11-10T08:15:08;14.23;;;6.47;;
53903;SDS011;39812;52.430;16.936;2022-11-10T08:17:34;10.52;;;5.72;;
53903;SDS011;39812;52.430;16.936;2022-11-10T08:19:59;17.75;;;5.95;;
53903;SDS011;39812;52.430;16.936;2022-11-10T08:22:25;13.30;;;4.93;;
53903;SDS011;39812;52.430;16.936;2022-11-10T08:24:50;12.88;;;5.72;;
53903;SDS011;39812;52.430;16.936;2022-11-10T08:27:16;11.70;;;4.95;;
53903;SDS011;39812;52.430;16.936;2022-11-10T08:29:41;8.95;;;4.85;;
53903;SDS011;39812;52.430;16.936;2022-11-10T08:32:07;12.10;;;4.68;;
53903;SDS011;39812;52.430;16.936;2022-11-10T08:34:32;7.38;;;4.72;;
53903;SDS011;39812;52.430;16.936;2022-11-10T08:36:57;8.43;;;3.92;;
53903;SDS011;39812;52.430;16.936;2022-11-10T08:39:23;12.88;;;5.15;;
53903;SDS011;39812;52.430;16.936;2022-11-10T08:41:48;8.85;;;3.83;;
53903;SDS011;39812;52.430;16.936;2022-11-10T08:44:16;9.57;;;4.97;;
53903;SDS011;39812;52.430;16.936;2022-11-10T08:46:42;13.80;;;4.68;;
53903;SDS011;39812;52.430;16.936;2022-11-10T08:49:08;9.90;;;4.68;;
53903;SDS011;39812;52.430;16.936;2022-11-10T08:51:33;9.18;;;3.90;;
53903;SDS011;39812;52.430;16.936;2022-11-10T08:53:59;6.32;;;2.90;;
53903;SDS011;39812;52.430;16.936;2022-11-10T08:56:24;8.95;;;3.78;;
53903;SDS011;39812;52.430;16.936;2022-11-10T08:58:50;7.28;;;3.15;;
53903;SDS011;39812;52.430;16.936;2022-11-10T09:01:16;26.13;;;7.15;;
53903;SDS011;39812;52.430;16.936;2022-11-10T09:03:41;7.10;;;3.80;;
53903;SDS011;39812;52.430;16.936;2022-11-10T09:06:07;5.35;;;3.30;;
53903;SDS011;39812;52.430;16.936;2022-11-10T09:08:35;8.43;;;2.90;;
53903;SDS011;39812;52.430;16.936;2022-11-10T09:11:02;7.00;;;3.20;;
53903;SDS011;39812;52.430;16.936;2022-11-10T09:13:28;6.72;;;3.10;;
53903;SDS011;39812;52.430;16.936;2022-11-10T09:15:55;11.68;;;2.83;;
53903;SDS011;39812;52.430;16.936;2022-11-10T09:18:23;8.63;;;3.45;;
53903;SDS011;39812;52.430;16.936;2022-11-10T09:20:49;9.10;;;2.90;;
53903;SDS011;39812;52.430;16.936;2022-11-10T09:23:16;5.80;;;3.20;;
53903;SDS011;39812;52.430;16.936;2022-11-10T09:25:46;6.85;;;2.80;;
53903;SDS011;39812;52.430;16.936;2022-11-10T09:28:13;6.93;;;2.80;;
53903;SDS011;39812;52.430;16.936;2022-11-10T09:30:40;7.90;;;2.92;;
53903;SDS011;39812;52.430;16.936;2022-11-10T09:33:07;10.65;;;2.80;;
53903;SDS011;39812;52.430;16.936;2022-11-10T09:35:35;5.88;;;2.50;;
53903;SDS011;39812;52.430;16.936;2022-11-10T09:38:00;3.88;;;2.47;;
53903;SDS011;39812;52.430;16.936;2022-11-10T09:43:37;8.18;;;2.97;;
53903;SDS011;39812;52.430;16.936;2022-11-10T09:46:31;5.93;;;3.03;;
53903;SDS011;39812;52.430;16.936;2022-11-10T09:49:43;6.63;;;3.20;;
53903;SDS011;39812;52.430;16.936;2022-11-10T09:51:57;4.80;;;2.65;;
53903;SDS011;39812;52.430;16.936;2022-11-10T09:57:11;8.98;;;3.10;;
53903;SDS011;39812;52.430;16.936;2022-11-10T09:59:39;6.65;;;2.70;;
53903;SDS011;39812;52.430;16.936;2022-11-10T10:07:51;5.82;;;2.63;;
53903;SDS011;39812;52.430;16.936;2022-11-10T10:10:33;7.60;;;2.92;;
53903;SDS011;39812;52.430;16.936;2022-11-10T10:13:41;5.82;;;2.63;;
53903;SDS011;39812;52.430;16.936;2022-11-10T10:19:13;5.90;;;2.50;;
53903;SDS011;39812;52.430;16.936;2022-11-10T10:21:59;11.23;;;2.50;;
53903;SDS011;39812;52.430;16.936;2022-11-10T10:24:35;11.70;;;2.58;;
53903;SDS011;39812;52.430;16.936;2022-11-10T10:27:03;4.40;;;2.80;;
53903;SDS011;39812;52.430;16.936;2022-11-10T10:29:31;6.57;;;2.28;;
53903;SDS011;39812;52.430;16.936;2022-11-10T10:32:03;5.30;;;1.80;;
53903;SDS011;39812;52.430;16.936;2022-11-10T10:34:33;7.90;;;2.60;;
53903;SDS011;39812;52.430;16.936;2022-11-10T10:37:00;4.88;;;2.38;;
53903;SDS011;39812;52.430;16.936;2022-11-10T10:39:27;5.05;;;2.60;;
53903;SDS011;39812;52.430;16.936;2022-11-10T10:42:09;8.43;;;2.45;;
53903;SDS011;39812;52.430;16.936;2022-11-10T10:47:43;8.48;;;2.60;;
53903;SDS011;39812;52.430;16.936;2022-11-10T10:53:15;4.20;;;1.98;;
53903;SDS011;39812;52.430;16.936;2022-11-10T10:58:51;8.88;;;2.22;;
53903;SDS011;39812;52.430;16.936;2022-11-10T11:03:54;10.63;;;2.42;;
53903;SDS011;39812;52.430;16.936;2022-11-10T11:06:21;5.97;;;2.28;;
53903;SDS011;39812;52.430;16.936;2022-11-10T11:08:55;7.20;;;2.35;;
53903;SDS011;39812;52.430;16.936;2022-11-10T11:11:27;5.30;;;2.25;;
53903;SDS011;39812;52.430;16.936;2022-11-10T11:14:11;7.32;;;1.98;;
53903;SDS011;39812;52.430;16.936;2022-11-10T11:16:47;3.95;;;2.33;;
53903;SDS011;39812;52.430;16.936;2022-11-10T11:19:15;5.53;;;1.90;;
53903;SDS011;39812;52.430;16.936;2022-11-10T11:24:29;5.75;;;1.60;;
53903;SDS011;39812;52.430;16.936;2022-11-10T11:27:28;3.55;;;1.90;;
53903;SDS011;39812;52.430;16.936;2022-11-10T11:30:02;4.47;;;1.58;;
53903;SDS011;39812;52.430;16.936;2022-11-10T11:32:38;2.67;;;1.20;;
53903;SDS011;39812;52.430;16.936;2022-11-10T11:35:30;3.85;;;1.75;;
53903;SDS011;39812;52.430;16.936;2022-11-10T11:38:08;3.95;;;1.45;;
53903;SDS011;39812;52.430;16.936;2022-11-10T11:40:43;7.63;;;1.87;;
53903;SDS011;39812;52.430;16.936;2022-11-10T11:43:32;5.20;;;1.90;;
53903;SDS011;39812;52.430;16.936;2022-11-10T11:46:41;4.20;;;1.35;;
53903;SDS011;39812;52.430;16.936;2022-11-10T11:58:02;3.95;;;1.65;;
53903;SDS011;39812;52.430;16.936;2022-11-10T12:00:43;4.90;;;1.58;;
53903;SDS011;39812;52.430;16.936;2022-11-10T12:08:56;3.65;;;1.20;;
53903;SDS011;39812;52.430;16.936;2022-11-10T12:17:09;4.32;;;1.30;;
53903;SDS011;39812;52.430;16.936;2022-11-10T12:19:43;5.50;;;1.15;;
53903;SDS011;39812;52.430;16.936;2022-11-10T12:22:37;4.03;;;1.60;;
53903;SDS011;39812;52.430;16.936;2022-11-10T12:28:05;3.72;;;1.45;;
53903;SDS011;39812;52.430;16.936;2022-11-10T12:30:41;5.00;;;1.60;;
53903;SDS011;39812;52.430;16.936;2022-11-10T12:33:13;7.15;;;1.90;;
53903;SDS011;39812;52.430;16.936;2022-11-10T12:35:50;5.65;;;1.75;;
53903;SDS011;39812;52.430;16.936;2022-11-10T12:38:20;5.93;;;2.00;;
53903;SDS011;39812;52.430;16.936;2022-11-10T12:40:53;6.72;;;1.77;;
53903;SDS011;39812;52.430;16.936;2022-11-10T12:44:02;4.22;;;1.95;;
53903;SDS011;39812;52.430;16.936;2022-11-10T12:46:40;6.57;;;2.17;;
53903;SDS011;39812;52.430;16.936;2022-11-10T12:49:18;5.50;;;2.00;;
53903;SDS011;39812;52.430;16.936;2022-11-10T12:51:58;5.35;;;1.63;;
53903;SDS011;39812;52.430;16.936;2022-11-10T12:54:33;9.43;;;2.00;;
53903;SDS011;39812;52.430;16.936;2022-11-10T12:57:08;9.57;;;1.73;;
53903;SDS011;39812;52.430;16.936;2022-11-10T12:59:47;6.95;;;2.42;;
53903;SDS011;39812;52.430;16.936;2022-11-10T13:07:42;4.75;;;2.00;;
53903;SDS011;39812;52.430;16.936;2022-11-10T13:10:23;4.32;;;1.52;;
53903;SDS011;39812;52.430;16.936;2022-11-10T13:13:24;4.10;;;1.65;;
53903;SDS011;39812;52.430;16.936;2022-11-10T13:15:48;4.82;;;1.40;;
53903;SDS011;39812;52.430;16.936;2022-11-10T13:20:56;6.50;;;1.60;;
53903;SDS011;39812;52.430;16.936;2022-11-10T13:25:56;7.28;;;1.75;;
53903;SDS011;39812;52.430;16.936;2022-11-10T13:36:43;8.82;;;1.85;;
53903;SDS011;39812;52.430;16.936;2022-11-10T13:39:14;6.20;;;1.80;;
53903;SDS011;39812;52.430;16.936;2022-11-10T13:41:46;7.32;;;2.40;;
53903;SDS011;39812;52.430;16.936;2022-11-10T13:52:28;3.92;;;1.58;;
53903;SDS011;39812;52.430;16.936;2022-11-10T13:54:59;7.35;;;1.60;;
53903;SDS011;39812;52.430;16.936;2022-11-10T13:57:37;6.25;;;1.40;;
53903;SDS011;39812;52.430;16.936;2022-11-10T14:00:21;5.40;;;1.20;;
53903;SDS011;39812;52.430;16.936;2022-11-10T14:02:50;4.85;;;1.50;;
53903;SDS011;39812;52.430;16.936;2022-11-10T14:07:53;4.50;;;1.20;;
53903;SDS011;39812;52.430;16.936;2022-11-10T14:10:25;6.45;;;1.60;;
53903;SDS011;39812;52.430;16.936;2022-11-10T14:13:09;9.43;;;1.50;;
53903;SDS011;39812;52.430;16.936;2022-11-10T14:15:42;2.70;;;1.33;;
53903;SDS011;39812;52.430;16.936;2022-11-10T14:18:21;7.25;;;1.40;;
53903;SDS011;39812;52.430;16.936;2022-11-10T14:21:07;4.90;;;1.45;;
53903;SDS011;39812;52.430;16.936;2022-11-10T14:23:52;4.93;;;1.95;;
53903;SDS011;39812;52.430;16.936;2022-11-10T14:26:36;9.43;;;1.58;;
53903;SDS011;39812;52.430;16.936;2022-11-10T14:29:18;8.63;;;1.70;;
53903;SDS011;39812;52.430;16.936;2022-11-10T14:31:44;5.68;;;1.60;;
53903;SDS011;39812;52.430;16.936;2022-11-10T14:34:14;6.88;;;1.73;;
53903;SDS011;39812;52.430;16.936;2022-11-10T14:36:48;5.53;;;1.67;;
53903;SDS011;39812;52.430;16.936;2022-11-10T14:39:15;5.28;;;1.85;;
53903;SDS011;39812;52.430;16.936;2022-11-10T14:41:44;8.32;;;1.73;;
53903;SDS011;39812;52.430;16.936;2022-11-10T14:44:12;5.88;;;2.00;;
53903;SDS011;39812;52.430;16.936;2022-11-10T14:46:43;2.95;;;1.63;;
53903;SDS011;39812;52.430;16.936;2022-11-10T14:49:09;4.95;;;1.70;;
53903;SDS011;39812;52.430;16.936;2022-11-10T14:51:34;6.50;;;2.00;;
53903;SDS011;39812;52.430;16.936;2022-11-10T14:54:00;5.10;;;1.88;;
53903;SDS011;39812;52.430;16.936;2022-11-10T14:56:34;6.15;;;1.83;;
53903;SDS011;39812;52.430;16.936;2022-11-10T14:59:01;4.60;;;2.20;;
53903;SDS011;39812;52.430;16.936;2022-11-10T15:04:00;4.88;;;2.10;;
53903;SDS011;39812;52.430;16.936;2022-11-10T15:06:27;5.03;;;2.53;;
53903;SDS011;39812;52.430;16.936;2022-11-10T15:08:54;7.20;;;2.38;;
53903;SDS011;39812;52.430;16.936;2022-11-10T15:11:39;5.28;;;2.00;;
53903;SDS011;39812;52.430;16.936;2022-11-10T15:14:29;8.10;;;1.90;;
53903;SDS011;39812;52.430;16.936;2022-11-10T15:17:09;10.30;;;2.60;;
53903;SDS011;39812;52.430;16.936;2022-11-10T15:22:17;8.68;;;2.33;;
53903;SDS011;39812;52.430;16.936;2022-11-10T15:24:46;12.02;;;2.45;;
53903;SDS011;39812;52.430;16.936;2022-11-10T15:27:21;6.97;;;2.17;;
53903;SDS011;39812;52.430;16.936;2022-11-10T15:29:48;5.07;;;2.10;;
53903;SDS011;39812;52.430;16.936;2022-11-10T15:32:15;6.75;;;2.60;;
53903;SDS011;39812;52.430;16.936;2022-11-10T15:34:45;6.80;;;2.63;;
53903;SDS011;39812;52.430;16.936;2022-11-10T15:37:26;4.93;;;2.50;;
53903;SDS011;39812;52.430;16.936;2022-11-10T15:46:01;3.97;;;2.33;;
53903;SDS011;39812;52.430;16.936;2022-11-10T15:48:54;7.13;;;2.80;;
53903;SDS011;39812;52.430;16.936;2022-11-10T15:51:19;7.43;;;2.92;;
53903;SDS011;39812;52.430;16.936;2022-11-10T15:53:45;13.05;;;3.63;;
53903;SDS011;39812;52.430;16.936;2022-11-10T15:56:17;5.80;;;2.47;;
53903;SDS011;39812;52.430;16.936;2022-11-10T15:58:44;6.35;;;3.17;;
53903;SDS011;39812;52.430;16.936;2022-11-10T16:01:15;9.38;;;3.53;;
53903;SDS011;39812;52.430;16.936;2022-11-10T16:03:41;9.80;;;3.70;;
53903;SDS011;39812;52.430;16.936;2022-11-10T16:06:11;10.25;;;3.33;;
53903;SDS011;39812;52.430;16.936;2022-11-10T16:08:38;9.15;;;4.05;;
53903;SDS011;39812;52.430;16.936;2022-11-10T16:11:06;12.65;;;5.18;;